Nesbitt, Texas
Current Conditions -  °F | °C
As of 10:55 PM on Friday 19 Dec 2014 (Local Time) from KASL Reporting Station
Overcast Overcast  
Wind Chill: 48°   Ceiling: 600
Heat Index: 48°   Visibility: 5mi
Dew Point: 46°   Wind: 3mph
Humidity: 91%   Direction: 60°ENE
Pressure: 30.22"   Gusts: NA
Location:  32.4675°N, 94.3321°W
Report Text: KASL 200455Z AUTO 06003KT 5SM OVC006 09/08 A3022 RMK AO1 T00900076
Loading
Personal Weather Stations






























Interactive Weather Map New forecast layout! Learn more

10-Day Weather Forecast

Advertisements
Track Severe Weather on mobile